x

Columbia River Bar - 20nm West Of Columbia River Mouth (46029) Wave Buoy

2:50am - Mon 22nd Dec 2014 All times are PST. -8 hours from GMT.

  • Sig Wave height 10.8ft
  • Swell Direction
  • Peak Period 13s
  • Average Period 8s
  • Wind
    13mph, 18mph gusts
  • Sea Temp 55°f
  • Air Temp 54°f
  • Sea Pressure 1024.2mb
  • Columbia River Bar - 20nm West Of Columbia River Mouth
  • Columbia River Bar - 20nm West Of Columbia River Mouth

More Historic Weather Station data

Upgrade to MSW Pro to gain access to the past 30 days of data for over 8000 Wavebouys and Weather Stations around the globe.

Join Pro

Comparision Forecast

View Surf forecast
   
Mon 12/22 2:50am 11ft 13s 8s 13 18 mph 1024.2mb 55f 54f
1:50am 11.5ft 13s 9s 13 18 mph 1022.7mb 55f 54f
12:50am 11.5ft 13s 9s 16 18 mph 1022.1mb 55f 55f
Sun 12/21 11:50pm 11.5ft 13s 9s 16 20 mph 1021.8mb 55f 54f
10:50pm 12ft 13s 9s 13 18 mph 1021.1mb 55f 55f
9:50pm 11ft 14s 9s 16 18 mph 1020.7mb 55f 55f
8:50pm 11.5ft 13s 9s 16 18 mph 1020.5mb 55f 55f
7:50pm 12ft 13s 9s 16 20 mph 1020.1mb 55f 55f
6:50pm 13ft 12s 9s 13 18 mph 1020.4mb 55f 55f
5:50pm 13ft 11s 9s 13 18 mph 1020mb 55f 55f
4:50pm 14ft 13s 9s 11 16 mph 1019.8mb 55f 55f
3:50pm 14ft 13s 9s 13 18 mph 1019.1mb 55f 55f
2:50pm 15.5ft 12s 9s 13 18 mph 1018.4mb 55f 55f
1:50pm 14ft 13s 9s 16 20 mph 1017.7mb 55f 55f
12:50pm 14ft 12s 8s 18 22 mph 1017.2mb 55f 55f
11:50am 12ft 13s 8s 18 22 mph 1017mb 55f 55f
10:50am 13.5ft 11s 9s 18 22 mph 1016.5mb 55f 55f
9:50am 13ft 13s 9s 16 20 mph 1016.2mb 55f 55f
8:50am 13ft 12s 8s 18 20 mph 1014.8mb 55f 55f
7:50am 14ft 14s 9s 18 20 mph 1014mb 55f 55f
6:50am 13ft 14s 8s 16 20 mph 1012.7mb 54f 55f
5:50am 13.5ft 14s 9s 18 22 mph 1012.1mb 54f 55f
4:50am 15ft 14s 8s 20 27 mph 1011.6mb 54f 55f
3:50am 15.5ft 13s 9s 20 22 mph 1011.2mb 54f 55f
2:50am 15.5ft 12s 8s 20 25 mph 1010.2mb 54f 55f
1:50am 15.5ft 14s 8s 20 27 mph 1008.9mb 55f 55f
12:50am 16ft 13s 8s 22 29 mph 1007.2mb 55f 56f
Sat 12/20 11:50pm 15.5ft 14s 8s 27 31 mph 1005.7mb 55f 56f
10:50pm 17ft 14s 8s 27 34 mph 1004.1mb 55f 56f
9:50pm 16ft 14s 8s 27 34 mph 1004.1mb 55f 56f
8:50pm 16.5ft 15s 8s 29 36 mph 1003.1mb 55f 56f
7:50pm 16ft 15s 8s 29 34 mph 1001.9mb 55f 56f
6:50pm 16.5ft 15s 8s 27 34 mph 1001.8mb 55f 56f
5:50pm 17ft 15s 8s 27 34 mph 1001.3mb 55f 56f
4:50pm 17ft 15s 8s 29 36 mph 1000.6mb 55f 57f
3:50pm 17.5ft 12s 8s 31 38 mph 999.9mb 55f 56f
2:50pm 17ft 13s 8s 29 34 mph 999.9mb 55f 55f
1:50pm 17.5ft 16s 9s 27 36 mph 999.2mb 55f 56f
12:50pm 18ft 13s 9s 27 34 mph 999.6mb 55f 56f
11:50am 18ft 16s 9s 27 34 mph 999.8mb 55f 56f
10:50am 15.5ft 12s 8s 25 31 mph 1000.3mb 55f 55f
9:50am 17.5ft 17s 9s 25 31 mph 1000.4mb 55f 55f
8:50am 18.5ft 16s 9s 27 31 mph 1000mb 56f 55f
7:50am 19.5ft 17s 9s 25 29 mph 1000.2mb 56f 55f
6:50am 17.5ft 16s 9s 27 34 mph 1000.3mb 56f 55f
5:50am 22.5ft 17s 9s 31 40 mph 1000.1mb 56f 55f
4:50am 19.5ft 17s 9s 31 38 mph 1000.2mb 56f 54f
3:50am 19.5ft 16s 9s 36 45 mph 1001.5mb 56f 53f
2:50am 22ft 16s 10s 31 38 mph 1003.6mb 56f 53f
1:50am 17ft 17s 9s 31 36 mph 1004.5mb 56f 53f
12:50am 16.5ft 15s 9s 34 38 mph 1005.7mb 56f 53f
Fri 12/19 11:50pm 15.5ft 16s 8s 34 40 mph 1006.8mb 56f 53f
10:50pm 16.5ft 16s 9s 27 34 mph 1008mb 56f 53f
9:50pm 18ft 17s 10s 27 31 mph 1008.7mb 56f 52f
8:50pm 14ft 15s 9s 22 29 mph 1009.2mb 56f 53f
7:50pm 15ft 17s 9s 22 29 mph 1010.5mb 56f 54f
6:50pm 15.5ft 16s 10s 25 29 mph 1011.2mb 56f 54f
5:50pm 15.5ft 19s 10s 22 27 mph 1011.9mb 55f 54f
4:50pm 14ft 19s 9s 22 27 mph 1012.3mb 55f 53f
3:50pm 14ft 19s 9s 20 25 mph 1011.9mb 55f 54f
2:50pm 14ft 19s 9s 20 22 mph 1012.4mb 55f 54f
1:50pm 13ft 19s 10s 20 25 mph 1012.5mb 55f 54f
12:50pm 13ft 19s 9s 16 18 mph 1012.9mb 55f 52f
11:50am 11ft 19s 8s 27 31 mph 1013.1mb 55f 51f
10:50am 12ft 19s 8s 22 27 mph 1013mb 55f 54f
9:50am 13ft 19s 8s 22 25 mph 1012.2mb 55f 53f
8:50am 11.5ft 11s 8s 20 25 mph 1011.7mb 54f 53f
7:50am 11.5ft 11s 7s 16 20 mph 1011mb 54f 53f
6:50am 11ft 11s 7s 18 20 mph 1010.4mb 55f 52f
5:50am 11ft 10s 7s 20 25 mph 1009.8mb 54f 53f
4:50am 11.5ft 10s 7s 22 25 mph 1009.3mb 54f 52f
3:50am 11ft 10s 7s 25 31 mph 1009.2mb 54f 51f
2:50am 12ft 10s 7s 25 27 mph 1009mb 54f 53f
1:50am 12ft 10s 7s 22 27 mph 1008.3mb 54f 53f
12:50am 12ft 10s 7s 20 25 mph 1007.9mb 54f 53f
Thu 12/18 11:50pm 11ft 10s 7s 20 25 mph 1007.6mb 54f 54f
10:50pm 14.5ft 10s 8s 20 27 mph 1007.2mb 54f 54f
9:50pm 15ft 10s 8s 20 25 mph 1006.6mb 54f 54f
8:50pm 15ft 11s 8s 18 22 mph 1006.5mb 54f 53f
7:50pm 14ft 9s 7s 20 25 mph 1005.7mb 54f 51f
6:50pm 15.5ft 9s 8s 18 22 mph 1004.8mb 54f 52f
5:50pm 15.5ft 9s 7s 27 34 mph 1004.2mb 54f 52f
4:50pm 14ft 8s 7s 36 45 mph 1003.6mb 54f 54f
3:50pm 13ft 8s 6s 36 43 mph 1004.4mb 54f 53f
2:50pm 12ft 8s 6s 36 47 mph 1004.7mb 54f 55f
1:50pm 10.5ft 13s 6s 31 40 mph 1005.7mb 54f 55f
12:50pm 10.5ft 13s 6s 29 36 mph 1006.8mb 54f 55f
11:50am 9.5ft 14s 6s 29 34 mph 1007.2mb 54f 54f